Historyczne dane pomiarowe

Dodano dane terminowe – wersja testowa.

Dane z okresu 1951-2019

Wersja bazy: 1.34 [2019-03-16, lista zmian], aktualizacja planowana na 2019-04-15

Dane meteo z obszaru Polski uzyskane na podstawie danych udostępnionych przez Instytut Meteorologii i Gospodarki Wodnej – Państwowy Instytut Badawczy.

 

Wybierz Datę:    

       

TemperaturaWilgotnośćWiatrCiśnienieOpadyŚniegCzas trwania zjawisk
 Stacja t tx tn tng RH VA  wxwx mslp ppp RRR   cm mm wxwxwxwxwxwxwx
1987-08-14 14.8 20.7 9.0 6.6 76.8- 6.0 1.3---- 2.7------------
1987-08-13 11.0 14.5 7.0 5.9 92.8- 6.0 2.3---- 0.0------------
1987-08-12 12.6 17.7 10.0 9.5 79.5- 5.7 4.0---- 0.0------------
1987-08-11 12.2 15.7 11.8 11.2 92.3- 8.0 3.0---- 8.0------------
1987-08-10 15.2 17.9 13.0 11.0 87.3- 8.0 2.7---- 0.1------------
1987-08-09 17.0 22.4 10.6 8.5 74.3- 4.0 2.0---- 4.7------------
1987-08-08 14.1 20.0 10.8 10.6 73.5- 7.0 3.0---- 0.0------------
1987-08-07 12.3 18.7 8.5 7.4 76.8- 5.7 4.7---- 1.1------------
1987-08-06 11.8 16.8 7.0 6.6 79.3- 6.7 3.7---- 0.3------------
1987-08-05 12.7 18.0 7.0 5.6 76.3- 4.3 2.0---- 0.1------------
1987-08-04 13.4 18.0 8.7 7.4 86.5- 6.0 2.7---- 9.0------------
1987-08-03 13.1 18.0 11.5 11.2 79.0- 6.3 3.0---- 0.8------------
1987-08-02 14.8 18.7 12.7 12.0 77.5- 6.3 3.3---- 2.0------------
1987-08-01 15.6 21.0 9.8 8.4 78.3- 7.0 2.0---- 1.7------------
1987-07-31 15.1 19.0 14.0 12.3 89.5- 8.0 1.7---- 2.1------------
1987-07-30 17.0 22.8 12.5 10.7 72.8- 4.7 1.0---- 0.0------------
1987-07-29 13.7 17.9 10.8 9.5 80.0- 7.0 3.0---- 1.3------------
1987-07-28 14.1 19.0 11.2 10.4 82.8- 6.7 4.3---- 0.9------------
1987-07-27 11.7 15.7 7.7 6.7 78.5- 5.7 4.3---- 4.0------------
1987-07-26 13.2 18.2 10.9 10.5 90.0- 8.0 1.0---- 4.5------------
1987-07-25 18.5 22.7 14.5 12.7 81.5- 6.0 2.0---- 2.7------------
1987-07-24 19.8 25.7 14.0 13.0 77.5- 5.3 1.3---- 1.7------------
1987-07-23 20.6 27.1 14.5 13.7 76.5- 3.0 0.7---- 0.0------------
1987-07-22 19.3 25.6 15.0 14.0 87.3- 6.0 1.0---- 3.7------------
1987-07-21 19.1 24.8 11.5 10.5 75.5- 3.3 0.7---- 0.0------------
1987-07-20 19.0 25.7 16.8 15.9 86.0- 7.0 3.7---- 0.0------------
1987-07-19 19.5 23.7 15.0 14.0 83.0- 5.0 3.3---- 0.0------------
1987-07-18 19.5 23.0 17.5 17.0 89.0- 6.3 3.0---- 0.0------------
1987-07-17 19.5 26.3 14.0 12.7 76.8- 6.7 4.3---- 12.8------------
1987-07-16 18.0 25.0 8.5 8.0 67.0- 4.7 1.0---- 0.0------------
1987-07-15 15.9 22.5 8.5 8.2 66.8- 1.3 0.7---- 0.0------------
1987-07-14 14.4 19.0 9.5 8.2 79.3- 6.0 3.3---- 0.0------------
1987-07-13 16.4 20.7 11.2 10.6 76.3- 4.7 2.7---- 0.0------------
1987-07-12 19.3 28.1 15.2 14.7 81.0- 7.0 3.0---- 2.3------------
1987-07-11 15.5 21.5 8.2 6.4 70.5- 5.3 4.0---- 6.5------------
1987-07-10 14.0 18.2 10.0 8.9 69.5- 6.3 3.7---- 0.0------------
1987-07-09 16.9 24.6 13.3 13.2 89.0- 8.0 1.7---- 6.9------------
1987-07-08 21.8 28.8 13.5 11.8 60.3- 2.7 1.7---- 0.0------------
1987-07-07 19.5 26.5 8.5 10.5 59.0- 0.7 1.3---- 0.0------------
1987-07-06 17.3 23.0 7.2 5.7 64.0- 2.0 0.7---- 0.0------------
1987-07-05 16.5 21.2 13.0 12.6 73.3- 4.0 1.7---- 0.0------------
1987-07-04 16.3 21.6 10.4 9.6 75.0- 6.3 0.7---- 0.0------------
1987-07-03 19.0 23.0 15.5 15.0 63.5- 4.0 1.7---- 0.0------------
1987-07-02 19.2 25.7 17.4 17.2 76.3- 7.3 1.3---- 0.0------------
1987-07-01 24.8 30.6 18.9 16.7 73.8- 2.3 2.0---- 0.0------------
1987-06-30 23.1 27.6 18.8 17.6 81.3- 4.0 1.0---- 0.0------------
1987-06-29 17.3 24.3 8.0 6.4 74.3- 5.3 1.0---- 0.0------------
1987-06-28 17.4 22.5 13.1 11.6 81.8- 7.0 2.7---- 0.4------------
1987-06-27 17.3 20.4 15.0 13.4 87.0- 8.0 2.0---- 4.5------------
1987-06-26 15.8 22.5 9.0 7.3 71.8- 6.0 2.3---- 1.2------------
1987-06-25 13.1 16.6 10.2 9.8 93.0- 7.3 1.7---- 2.7------------
1987-06-24 15.4 20.0 12.4 10.5 77.5- 6.7 2.0---- 9.5------------
1987-06-23 15.6 21.7 12.0 10.6 81.5- 6.0 1.0---- 0.1------------
1987-06-22 18.0 24.3 11.2 9.3 73.8- 4.3 1.0---- 0.0------------
1987-06-21 16.9 22.8 9.5 7.4 71.0- 2.7 1.0---- 0.0------------
1987-06-20 15.5 21.9 7.7 5.6 64.8- 2.7 1.7---- 0.0------------
1987-06-19 11.4 15.7 6.8 5.2 78.5- 5.0 3.0---- 0.5------------
1987-06-18 10.4 16.6 4.3 2.9 78.5- 6.7 1.7---- 2.0------------
1987-06-17 11.4 14.5 9.5 8.5 79.0- 7.0 1.7---- 0.4------------
1987-06-16 15.6 25.5 11.2 10.7 83.8- 7.3 3.0---- 12.3------------
442.5 ms

 

Źródłem pochodzenia danych jest Instytut Meteorologii i Gospodarki Wodnej – Państwowy Instytut Badawczy. Dane Instytutu Meteorologii i Gospodarki Wodnej – Państwowego Instytutu Badawczego zostały przetworzone.

Dane źródłowe można odnaleźć na stronie https://dane.imgw.pl